createdAt,value
2018-09-14T00:00:35.174Z,7.87
2018-09-14T00:03:04.522Z,8.20
2018-09-14T00:05:33.386Z,7.60
2018-09-14T00:08:02.452Z,8.20
2018-09-14T00:10:30.995Z,8.10
2018-09-14T00:12:59.526Z,7.30
2018-09-14T00:15:28.126Z,8.50
2018-09-14T00:17:56.687Z,7.57
2018-09-14T00:20:25.453Z,8.60
2018-09-14T00:22:53.944Z,9.10
2018-09-14T00:25:22.487Z,10.37
2018-09-14T00:27:50.996Z,10.40
2018-09-14T00:30:19.584Z,9.80
2018-09-14T00:32:48.125Z,10.07
2018-09-14T00:35:16.895Z,11.13
2018-09-14T00:37:45.566Z,10.70
2018-09-14T00:40:16.615Z,11.80
2018-09-14T00:42:45.122Z,12.07
2018-09-14T00:45:13.663Z,10.67
2018-09-14T00:47:42.179Z,11.77
2018-09-14T00:50:10.922Z,12.20
2018-09-14T00:52:39.488Z,12.33
2018-09-14T00:55:08.039Z,12.20
2018-09-14T00:57:36.656Z,12.90
2018-09-14T01:00:05.613Z,12.47
2018-09-14T01:02:34.368Z,12.67
2018-09-14T01:05:03.120Z,12.97
2018-09-14T01:07:32.065Z,13.37
2018-09-14T01:10:01.116Z,12.53
2018-09-14T01:12:29.623Z,12.47
2018-09-14T01:14:58.143Z,12.30
2018-09-14T01:17:26.750Z,12.17
2018-09-14T01:19:55.700Z,12.37
2018-09-14T01:22:24.182Z,13.80
2018-09-14T01:24:53.004Z,14.70
2018-09-14T01:27:21.525Z,15.30
2018-09-14T01:29:50.094Z,15.90
2018-09-14T01:32:19.379Z,14.33
2018-09-14T01:34:47.898Z,15.07
2018-09-14T01:37:16.359Z,14.53
2018-09-14T01:39:45.055Z,14.80
2018-09-14T01:42:13.529Z,15.63
2018-09-14T01:44:42.050Z,16.07
2018-09-14T01:47:10.546Z,15.27
2018-09-14T01:49:39.204Z,13.60
2018-09-14T01:52:08.447Z,14.90
2018-09-14T01:54:37.089Z,15.50
2018-09-14T01:57:05.751Z,14.70
2018-09-14T01:59:34.287Z,14.43
2018-09-14T02:02:03.058Z,14.13
2018-09-14T02:04:31.625Z,15.70
2018-09-14T02:07:00.338Z,14.17
2018-09-14T02:09:28.867Z,13.50
2018-09-14T02:11:57.350Z,14.37
2018-09-14T02:14:25.878Z,14.47
2018-09-14T02:16:54.349Z,15.97
2018-09-14T02:19:23.150Z,14.83
2018-09-14T02:21:51.646Z,14.90
2018-09-14T02:24:20.175Z,13.80
2018-09-14T02:26:48.650Z,14.80
2018-09-14T02:29:17.762Z,14.73
2018-09-14T02:31:46.282Z,15.47
2018-09-14T02:34:14.799Z,15.30
2018-09-14T02:36:43.270Z,14.17
2018-09-14T02:39:11.789Z,13.77
2018-09-14T02:41:40.278Z,14.80
2018-09-14T02:44:08.787Z,14.30
2018-09-14T02:46:37.456Z,16.20
2018-09-14T02:49:06.250Z,15.77
2018-09-14T02:51:34.972Z,14.70
2018-09-14T02:54:03.566Z,15.33
2018-09-14T02:56:32.073Z,15.23
2018-09-14T02:59:00.587Z,18.80
2018-09-14T03:01:29.130Z,17.07
2018-09-14T03:03:57.771Z,17.80
2018-09-14T03:06:26.282Z,17.60
2018-09-14T03:08:54.807Z,16.80
2018-09-14T03:11:23.298Z,15.43
2018-09-14T03:13:51.871Z,16.03
2018-09-14T03:16:20.381Z,17.80
2018-09-14T03:18:48.918Z,18.60
2018-09-14T03:21:17.603Z,15.70
2018-09-14T03:23:46.108Z,18.40
2018-09-14T03:26:15.486Z,16.53
2018-09-14T03:28:44.145Z,16.53
2018-09-14T03:31:12.631Z,17.53
2018-09-14T03:33:41.532Z,16.67
2018-09-14T03:36:10.067Z,16.47
2018-09-14T03:38:38.786Z,16.87
2018-09-14T03:41:07.651Z,17.17
2018-09-14T03:43:36.143Z,17.10
2018-09-14T03:46:04.688Z,18.33
2018-09-14T03:48:33.181Z,19.13
2018-09-14T03:51:01.747Z,18.47
2018-09-14T03:53:30.237Z,17.47
2018-09-14T03:56:01.216Z,18.70
2018-09-14T03:58:29.820Z,18.20
2018-09-14T04:00:58.389Z,19.47
2018-09-14T04:03:26.916Z,19.20
2018-09-14T04:05:55.428Z,21.10
2018-09-14T04:08:23.977Z,22.27
2018-09-14T04:10:52.486Z,22.03
2018-09-14T04:13:21.680Z,21.20
2018-09-14T04:15:50.199Z,21.63
2018-09-14T04:18:18.759Z,23.20
2018-09-14T04:20:47.449Z,21.17
2018-09-14T04:23:16.201Z,19.73
2018-09-14T04:25:44.950Z,21.20
2018-09-14T04:28:13.500Z,19.87
2018-09-14T04:30:42.164Z,21.00
2018-09-14T04:33:11.049Z,21.47
2018-09-14T04:35:39.666Z,20.00
2018-09-14T04:38:08.528Z,20.60
2018-09-14T04:40:37.060Z,21.67
2018-09-14T04:43:05.536Z,22.00
2018-09-14T04:45:34.214Z,18.63
2018-09-14T04:48:02.792Z,19.47
2018-09-14T04:50:31.322Z,20.67
2018-09-14T04:53:00.029Z,19.30
2018-09-14T04:55:28.612Z,21.83
2018-09-14T04:57:57.207Z,17.53
2018-09-14T05:00:25.771Z,18.20
2018-09-14T05:02:54.533Z,18.10
2018-09-14T05:05:23.095Z,14.63
2018-09-14T05:07:51.617Z,14.60
2018-09-14T05:10:20.798Z,14.03
2018-09-14T05:12:49.311Z,15.43
2018-09-14T05:15:17.851Z,15.70
2018-09-14T05:17:46.984Z,14.27
2018-09-14T05:20:15.880Z,16.03
2018-09-14T05:22:44.382Z,15.67
2018-09-14T05:25:13.206Z,16.80
2018-09-14T05:27:42.537Z,15.17
2018-09-14T05:30:11.074Z,16.97
2018-09-14T05:32:39.670Z,16.87
2018-09-14T05:35:08.245Z,17.10
2018-09-14T05:37:36.873Z,16.70
2018-09-14T05:40:06.111Z,15.63
2018-09-14T05:42:34.825Z,16.20
2018-09-14T05:45:03.390Z,18.53
2018-09-14T05:47:31.927Z,16.33
2018-09-14T05:50:00.510Z,16.40
2018-09-14T05:52:29.018Z,17.67
2018-09-14T05:54:57.688Z,16.13
2018-09-14T05:57:26.621Z,18.17
2018-09-14T05:59:57.118Z,16.63
2018-09-14T06:02:25.963Z,17.27
2018-09-14T06:04:54.886Z,17.77
2018-09-14T06:07:23.799Z,15.63
2018-09-14T06:09:52.459Z,18.10
2018-09-14T06:12:21.013Z,16.00
2018-09-14T06:14:49.491Z,17.30
2018-09-14T06:17:18.343Z,16.13
2018-09-14T06:19:47.138Z,16.63
2018-09-14T06:22:16.289Z,15.20
2018-09-14T06:24:44.805Z,15.57
2018-09-14T06:27:13.361Z,14.80
2018-09-14T06:29:41.830Z,14.60
2018-09-14T06:32:10.766Z,14.47
2018-09-14T06:34:39.285Z,13.00
2018-09-14T06:37:07.845Z,14.50
2018-09-14T06:39:36.430Z,13.73
2018-09-14T06:42:04.942Z,12.53
2018-09-14T06:44:33.463Z,11.50
2018-09-14T06:47:01.960Z,10.70
2018-09-14T06:49:30.521Z,10.67
2018-09-14T06:51:59.041Z,10.23
2018-09-14T06:54:29.620Z,11.20
2018-09-14T06:56:58.076Z,12.03
2018-09-14T06:59:26.594Z,12.20
2018-09-14T07:01:55.159Z,11.50
2018-09-14T07:04:23.661Z,11.33
2018-09-14T07:06:52.519Z,10.83
2018-09-14T07:09:21.126Z,10.57
2018-09-14T07:11:49.704Z,10.20
2018-09-14T07:14:18.278Z,10.07
2018-09-14T07:16:47.242Z,10.20
2018-09-14T07:19:16.321Z,10.00
2018-09-14T07:21:44.916Z,10.60
2018-09-14T07:24:13.486Z,9.90
2018-09-14T07:26:42.107Z,10.90
2018-09-14T07:29:10.741Z,10.27
2018-09-14T07:31:39.400Z,10.43
2018-09-14T07:34:07.835Z,10.30
2018-09-14T07:36:36.500Z,10.60
2018-09-14T07:39:07.453Z,11.17
2018-09-14T07:41:36.098Z,11.40
2018-09-14T07:44:04.973Z,10.43
2018-09-14T07:46:33.492Z,10.27
2018-09-14T07:49:01.993Z,11.67
2018-09-14T07:51:32.854Z,11.80
2018-09-14T07:54:01.358Z,11.10
2018-09-14T07:56:29.972Z,11.33
2018-09-14T07:58:58.830Z,10.80
2018-09-14T08:01:27.376Z,11.87
2018-09-14T08:03:55.990Z,10.27
2018-09-14T08:06:24.549Z,11.43
2018-09-14T08:08:53.090Z,11.20
2018-09-14T08:11:21.581Z,11.63
2018-09-14T08:13:50.950Z,11.60
2018-09-14T08:16:20.062Z,10.60
2018-09-14T08:18:48.776Z,10.90
2018-09-14T08:21:17.311Z,11.77
2018-09-14T08:23:46.632Z,11.53
2018-09-14T08:26:15.365Z,10.43
2018-09-14T08:28:44.109Z,12.30
2018-09-14T08:31:12.811Z,10.87
2018-09-14T08:33:41.352Z,10.90
2018-09-14T08:36:10.475Z,10.40
2018-09-14T08:38:39.023Z,10.17
2018-09-14T08:41:09.192Z,9.63
2018-09-14T08:43:37.673Z,10.70
2018-09-14T08:46:06.487Z,11.77
2018-09-14T08:48:35.216Z,11.20
2018-09-14T08:51:03.741Z,10.60
2018-09-14T08:53:32.438Z,10.63
2018-09-14T08:56:01.539Z,11.53
2018-09-14T08:58:30.182Z,9.37
2018-09-14T09:00:58.957Z,10.43
2018-09-14T09:03:27.611Z,10.77
2018-09-14T09:05:56.156Z,10.17
2018-09-14T09:08:24.651Z,9.00
2018-09-14T09:10:53.408Z,9.07
2018-09-14T09:13:22.646Z,10.60
2018-09-14T09:15:51.310Z,10.10
2018-09-14T09:18:19.874Z,9.60
2018-09-14T09:20:48.467Z,10.43
2018-09-14T09:23:18.209Z,10.57
2018-09-14T09:25:48.927Z,11.70
2018-09-14T09:28:17.432Z,9.00
2018-09-14T09:30:46.169Z,10.40
2018-09-14T09:33:14.660Z,10.37
2018-09-14T09:35:43.227Z,8.73
2018-09-14T09:38:11.799Z,9.77
2018-09-14T09:40:40.284Z,9.30
2018-09-14T09:43:09.147Z,13.53
2018-09-14T09:45:37.593Z,10.17
2018-09-14T09:48:06.482Z,11.23
2018-09-14T09:50:34.996Z,11.07
2018-09-14T09:53:03.731Z,9.37
2018-09-14T09:55:32.208Z,9.97
2018-09-14T09:58:00.770Z,10.40
2018-09-14T10:00:35.280Z,12.10
2018-09-14T10:03:09.967Z,11.80
2018-09-14T10:05:43.823Z,10.93
2018-09-14T10:08:12.603Z,9.10
2018-09-14T10:10:41.116Z,8.97
2018-09-14T10:13:09.866Z,8.53
2018-09-14T10:15:38.375Z,8.63
2018-09-14T10:18:07.040Z,9.13
2018-09-14T10:20:35.883Z,9.27
2018-09-14T10:23:04.569Z,10.03
2018-09-14T10:25:33.336Z,9.50
2018-09-14T10:28:01.866Z,9.20
2018-09-14T10:30:30.414Z,9.37
2018-09-14T10:32:59.006Z,9.70
2018-09-14T10:35:27.491Z,8.00
2018-09-14T10:37:56.375Z,7.57
2018-09-14T10:40:25.273Z,7.23
2018-09-14T10:42:54.260Z,6.53
2018-09-14T10:45:23.267Z,6.00
2018-09-14T10:47:51.829Z,5.80
2018-09-14T10:50:20.722Z,7.47
2018-09-14T10:52:49.275Z,7.00
2018-09-14T10:55:18.596Z,6.63
2018-09-14T10:57:47.052Z,6.70
2018-09-14T11:00:16.145Z,6.80
2018-09-14T11:02:44.835Z,7.10
2018-09-14T11:05:13.327Z,6.30
2018-09-14T11:07:41.865Z,6.77
2018-09-14T11:10:10.450Z,7.30
2018-09-14T11:12:39.052Z,5.80
2018-09-14T11:15:07.606Z,5.17
2018-09-14T11:17:36.217Z,5.67
2018-09-14T11:20:05.397Z,5.43
2018-09-14T11:22:34.374Z,5.87
2018-09-14T11:25:03.562Z,5.50
2018-09-14T11:27:32.103Z,5.37
2018-09-14T11:30:00.610Z,5.13
2018-09-14T11:32:29.291Z,4.70
2018-09-14T11:34:58.302Z,4.97
2018-09-14T11:37:26.866Z,4.53
2018-09-14T11:39:56.362Z,4.73
2018-09-14T11:42:25.905Z,4.80
2018-09-14T11:44:54.396Z,5.03
2018-09-14T11:47:22.930Z,4.97
2018-09-14T11:49:51.452Z,4.77
2018-09-14T11:52:20.050Z,5.37
2018-09-14T11:54:48.612Z,4.47
2018-09-14T11:57:17.152Z,5.00
2018-09-14T11:59:45.859Z,4.87
2018-09-14T12:02:14.455Z,4.83
2018-09-14T12:04:42.987Z,5.27
2018-09-14T12:07:11.535Z,4.43
2018-09-14T12:09:40.143Z,4.80
2018-09-14T12:12:09.425Z,4.10
2018-09-14T12:14:37.951Z,4.60
2018-09-14T12:17:06.927Z,4.73
2018-09-14T12:19:35.727Z,5.13
2018-09-14T12:22:04.610Z,4.43
2018-09-14T12:24:33.311Z,4.73
2018-09-14T12:27:01.866Z,4.67
2018-09-14T12:29:30.387Z,4.10
2018-09-14T12:31:58.890Z,3.60
2018-09-14T12:34:27.875Z,4.50
2018-09-14T12:36:57.138Z,3.80
2018-09-14T12:39:25.688Z,3.80
2018-09-14T12:41:54.721Z,5.37
2018-09-14T12:44:23.299Z,4.37
2018-09-14T12:46:51.807Z,3.90
2018-09-14T12:49:20.446Z,4.53
2018-09-14T12:51:49.175Z,4.33
2018-09-14T12:54:17.712Z,4.00
2018-09-14T12:56:46.246Z,4.57
2018-09-14T12:59:14.778Z,4.40
2018-09-14T13:01:43.799Z,5.00
2018-09-14T13:04:12.440Z,5.27
2018-09-14T13:06:40.963Z,4.50
2018-09-14T13:09:11.210Z,5.20
2018-09-14T13:11:40.435Z,5.90
2018-09-14T13:14:09.559Z,4.70
2018-09-14T13:16:38.611Z,5.60
2018-09-14T13:19:07.458Z,5.10
2018-09-14T13:21:35.994Z,4.53
2018-09-14T13:24:11.116Z,5.40
2018-09-14T13:26:39.654Z,5.20
2018-09-14T13:29:08.210Z,5.67
2018-09-14T13:31:36.798Z,4.93
2018-09-14T13:34:05.947Z,4.60
2018-09-14T13:36:34.542Z,4.60
2018-09-14T13:39:03.175Z,5.07
2018-09-14T13:41:32.409Z,5.77
2018-09-14T13:44:01.026Z,4.73
2018-09-14T13:46:29.543Z,4.63
2018-09-14T13:48:58.107Z,5.27
2018-09-14T13:51:26.765Z,5.37
2018-09-14T13:53:55.467Z,5.33
2018-09-14T13:56:24.134Z,5.10
2018-09-14T13:58:52.742Z,5.10
2018-09-14T14:01:21.880Z,4.57
2018-09-14T14:03:50.669Z,4.93
2018-09-14T14:06:19.447Z,5.50
2018-09-14T14:08:47.996Z,4.80
2018-09-14T14:11:16.514Z,3.90
2018-09-14T14:13:45.663Z,4.20
2018-09-14T14:16:14.338Z,4.43
2018-09-14T14:18:43.054Z,5.40
2018-09-14T14:21:11.877Z,4.20
2018-09-14T14:23:40.918Z,4.30
2018-09-14T14:26:09.637Z,4.87
2018-09-14T14:28:39.074Z,5.03
2018-09-14T14:31:07.701Z,5.30
2018-09-14T14:33:36.232Z,4.53
2018-09-14T14:36:04.802Z,4.50
2018-09-14T14:38:33.332Z,4.47
2018-09-14T14:41:02.005Z,4.40
2018-09-14T14:43:30.546Z,4.40
2018-09-14T14:45:59.245Z,4.43
2018-09-14T14:48:27.895Z,4.40
2018-09-14T14:50:56.731Z,4.70
2018-09-14T14:53:25.306Z,5.07
2018-09-14T14:55:53.903Z,4.57
2018-09-14T14:58:22.414Z,4.47
2018-09-14T15:00:51.142Z,4.27
2018-09-14T15:03:19.793Z,4.17
2018-09-14T15:05:48.310Z,4.60
2018-09-14T15:08:16.831Z,5.10
2018-09-14T15:10:45.509Z,4.10
2018-09-14T15:13:14.607Z,4.13
2018-09-14T15:15:43.541Z,4.23
2018-09-14T15:18:13.131Z,4.30
2018-09-14T15:20:42.105Z,4.87
2018-09-14T15:23:10.659Z,5.50
2018-09-14T15:25:39.230Z,4.30
2018-09-14T15:28:07.986Z,5.23
2018-09-14T15:30:36.610Z,5.10
2018-09-14T15:33:05.140Z,5.83
2018-09-14T15:35:34.046Z,3.27
2018-09-14T15:38:03.001Z,4.10
2018-09-14T15:40:31.526Z,4.47
2018-09-14T15:43:00.016Z,5.77
2018-09-14T15:45:28.596Z,4.20
2018-09-14T15:47:57.236Z,4.90
2018-09-14T15:50:26.479Z,5.17
2018-09-14T15:52:55.141Z,4.33
2018-09-14T15:55:23.653Z,4.57
2018-09-14T15:57:52.415Z,4.60
2018-09-14T16:00:21.891Z,3.97
2018-09-14T16:02:52.197Z,3.93
2018-09-14T16:05:21.739Z,4.30
2018-09-14T16:07:50.873Z,4.60
2018-09-14T16:10:19.524Z,4.97
2018-09-14T16:12:48.191Z,4.80
2018-09-14T16:15:16.758Z,5.27
2018-09-14T16:17:45.514Z,4.67
2018-09-14T16:20:14.043Z,4.47
2018-09-14T16:22:42.523Z,4.37
2018-09-14T16:25:11.164Z,4.20
2018-09-14T16:27:40.295Z,4.23
2018-09-14T16:30:10.120Z,5.20
2018-09-14T16:32:38.880Z,5.50
2018-09-14T16:35:07.428Z,5.20
2018-09-14T16:37:35.987Z,6.00
2018-09-14T16:40:04.561Z,5.00
2018-09-14T16:42:33.111Z,5.03
2018-09-14T16:45:01.672Z,4.70
2018-09-14T16:47:31.176Z,5.83
2018-09-14T16:50:00.030Z,5.00
2018-09-14T16:52:28.573Z,5.30
2018-09-14T16:54:57.127Z,5.20
2018-09-14T16:57:26.217Z,5.57
2018-09-14T16:59:54.990Z,6.60
2018-09-14T17:02:23.546Z,4.60
2018-09-14T17:04:52.431Z,5.03
2018-09-14T17:07:21.015Z,6.30
2018-09-14T17:09:50.305Z,6.37
2018-09-14T17:12:19.326Z,5.70
2018-09-14T17:14:48.103Z,6.20
2018-09-14T17:17:16.630Z,5.60
2018-09-14T17:19:46.122Z,6.80
2018-09-14T17:22:14.636Z,4.87
2018-09-14T17:24:43.416Z,5.40
2018-09-14T17:27:12.170Z,5.50
2018-09-14T17:29:41.314Z,4.90
2018-09-14T17:32:09.889Z,5.00
2018-09-14T17:34:38.504Z,5.13
2018-09-14T17:37:13.333Z,4.40
2018-09-14T17:39:42.600Z,5.83
2018-09-14T17:42:11.177Z,4.50
2018-09-14T17:44:39.762Z,4.40
2018-09-14T17:47:08.274Z,5.07
2018-09-14T17:49:37.393Z,6.63
2018-09-14T17:52:06.066Z,5.60
2018-09-14T17:54:34.599Z,7.13
2018-09-14T17:57:03.466Z,6.90
2018-09-14T17:59:31.939Z,6.13
2018-09-14T18:02:00.504Z,6.90
2018-09-14T18:04:29.466Z,15.90
2018-09-14T18:06:58.051Z,11.53
2018-09-14T18:09:26.559Z,10.30
2018-09-14T18:11:55.121Z,9.63
2018-09-14T18:14:24.807Z,8.00
2018-09-14T18:16:54.335Z,7.60
2018-09-14T18:19:23.022Z,12.00
2018-09-14T18:21:51.948Z,10.00
2018-09-14T18:24:21.212Z,8.30
2018-09-14T18:26:49.749Z,8.57
2018-09-14T18:29:18.323Z,8.80
2018-09-14T18:31:46.927Z,8.13
2018-09-14T18:34:15.694Z,9.20
2018-09-14T18:36:44.207Z,8.10
2018-09-14T18:39:14.037Z,8.00
2018-09-14T18:41:43.043Z,8.40
2018-09-14T18:44:12.935Z,7.70
2018-09-14T18:46:41.552Z,6.83
2018-09-14T18:49:10.550Z,7.43
2018-09-14T18:51:39.668Z,6.97
2018-09-14T18:54:09.012Z,4.93
2018-09-14T18:56:37.562Z,6.10
2018-09-14T18:59:06.523Z,6.33
2018-09-14T19:01:34.991Z,5.43
2018-09-14T19:04:03.590Z,6.03
2018-09-14T19:06:32.134Z,6.73
2018-09-14T19:09:00.662Z,7.37
2018-09-14T19:11:29.194Z,6.40
2018-09-14T19:13:58.472Z,7.20
2018-09-14T19:16:27.649Z,6.53
2018-09-14T19:18:56.281Z,8.37
2018-09-14T19:21:24.799Z,8.27
2018-09-14T19:23:53.335Z,8.60
2018-09-14T19:26:22.158Z,9.20
2018-09-14T19:28:50.715Z,8.40
2018-09-14T19:31:19.340Z,8.20
2018-09-14T19:33:47.971Z,10.40
2018-09-14T19:36:16.649Z,12.07
2018-09-14T19:38:45.349Z,10.47
2018-09-14T19:41:14.933Z,10.43
2018-09-14T19:43:43.512Z,10.13
2018-09-14T19:46:12.810Z,9.60
2018-09-14T19:48:41.396Z,10.33
2018-09-14T19:51:10.564Z,14.27
2018-09-14T19:53:39.177Z,19.40
2018-09-14T19:56:07.738Z,23.77
2018-09-14T19:58:36.639Z,22.67
2018-09-14T20:01:05.516Z,22.97
2018-09-14T20:03:34.354Z,20.70
2018-09-14T20:06:02.985Z,21.87
2018-09-14T20:08:31.682Z,23.57
2018-09-14T20:11:00.219Z,28.43
2018-09-14T20:13:29.092Z,20.70
2018-09-14T20:15:57.759Z,15.53
2018-09-14T20:18:27.225Z,14.87
2018-09-14T20:20:55.700Z,15.17
2018-09-14T20:23:24.239Z,13.77
2018-09-14T20:25:52.753Z,12.47
2018-09-14T20:28:21.332Z,10.63
2018-09-14T20:30:50.598Z,10.97
2018-09-14T20:33:19.136Z,10.47
2018-09-14T20:35:47.699Z,10.93
2018-09-14T20:38:16.333Z,10.07
2018-09-14T20:40:44.967Z,13.53
2018-09-14T20:43:13.680Z,14.13
2018-09-14T20:45:42.360Z,13.70
2018-09-14T20:48:11.197Z,13.73
2018-09-14T20:50:40.399Z,16.13
2018-09-14T20:53:09.114Z,13.57
2018-09-14T20:55:37.909Z,11.63
2018-09-14T20:58:06.431Z,11.73
2018-09-14T21:00:35.055Z,11.60
2018-09-14T21:03:04.191Z,11.47
2018-09-14T21:05:33.438Z,11.67
2018-09-14T21:08:02.970Z,10.93
2018-09-14T21:10:31.744Z,10.43
2018-09-14T21:13:00.967Z,11.80
2018-09-14T21:15:29.569Z,11.87
2018-09-14T21:17:58.126Z,11.20
2018-09-14T21:20:26.711Z,10.67
2018-09-14T21:22:55.333Z,11.27
2018-09-14T21:25:23.911Z,10.53
2018-09-14T21:27:52.503Z,10.93
2018-09-14T21:30:21.269Z,10.70
2018-09-14T21:32:50.010Z,10.67
2018-09-14T21:35:18.573Z,11.33
2018-09-14T21:37:47.164Z,11.60
2018-09-14T21:40:15.854Z,11.00
2018-09-14T21:42:45.195Z,10.47
2018-09-14T21:45:13.734Z,11.37
2018-09-14T21:47:42.367Z,10.73
2018-09-14T21:50:10.910Z,11.70
2018-09-14T21:52:39.422Z,12.10
2018-09-14T21:55:08.546Z,10.43
2018-09-14T21:57:37.326Z,10.60
2018-09-14T22:00:12.263Z,11.53
2018-09-14T22:02:41.517Z,11.60
2018-09-14T22:05:10.135Z,10.30
2018-09-14T22:07:39.264Z,14.23
2018-09-14T22:10:08.203Z,11.90
2018-09-14T22:12:37.418Z,11.30
2018-09-14T22:15:05.978Z,11.50
2018-09-14T22:17:35.266Z,12.63
2018-09-14T22:20:03.932Z,11.03
2018-09-14T22:22:32.634Z,11.00
2018-09-14T22:25:01.207Z,12.80
2018-09-14T22:27:30.599Z,11.63
2018-09-14T22:30:00.032Z,12.17
2018-09-14T22:32:28.738Z,11.37
2018-09-14T22:34:57.427Z,13.10
2018-09-14T22:37:26.779Z,10.90
2018-09-14T22:39:55.568Z,12.77
2018-09-14T22:42:24.811Z,12.10
2018-09-14T22:44:53.769Z,12.23
2018-09-14T22:47:23.418Z,11.43
2018-09-14T22:49:51.920Z,11.53
2018-09-14T22:52:20.567Z,12.67
2018-09-14T22:54:49.028Z,11.27
2018-09-14T22:57:17.670Z,11.53
2018-09-14T22:59:46.400Z,12.23
2018-09-14T23:02:14.984Z,11.40
2018-09-14T23:04:43.495Z,10.37
2018-09-14T23:07:12.051Z,11.90
2018-09-14T23:09:40.535Z,12.93
2018-09-14T23:12:09.105Z,12.83
2018-09-14T23:14:38.941Z,13.13
2018-09-14T23:17:07.894Z,13.17
2018-09-14T23:19:36.404Z,14.27
2018-09-14T23:22:05.022Z,13.23
2018-09-14T23:24:33.564Z,14.03
2018-09-14T23:27:02.285Z,14.17
2018-09-14T23:29:30.774Z,13.80
2018-09-14T23:31:59.305Z,13.13
2018-09-14T23:34:27.819Z,13.80
2018-09-14T23:36:56.352Z,14.40
2018-09-14T23:39:24.861Z,13.53
2018-09-14T23:41:53.629Z,14.70
2018-09-14T23:44:22.131Z,15.77
2018-09-14T23:46:50.827Z,15.13
2018-09-14T23:49:19.496Z,16.37
2018-09-14T23:51:48.278Z,14.67
2018-09-14T23:54:16.828Z,14.33
2018-09-14T23:56:45.478Z,15.20
2018-09-14T23:59:14.045Z,15.87
